Time;durP1;ratioP1;P1;durP2;ratioP2;P2;SDS_P1;SDS_P2;PMS_P1;PMS_P2;Temp;Humidity;BMP_temperature;BMP_pressure;BME280_temperature;BME280_humidity;BME280_pressure;Samples;Min_cycle;Max_cycle;Signal;HPM_P1;HPM_P2
2023/03/15 00:00:43;;;;;;;0.60;0.60;;;2.40;99.90;;;;;;6214225;23;20047;-78
2023/03/15 00:03:09;;;;;;;0.70;0.70;;;2.30;99.90;;;;;;6213928;23;20016;-78
2023/03/15 00:05:35;;;;;;;0.60;0.60;;;2.50;99.90;;;;;;6214161;23;20025;-78
2023/03/15 00:08:01;;;;;;;0.60;0.60;;;2.50;99.90;;;;;;6216136;23;20319;-79
2023/03/15 00:10:28;;;;;;;0.70;0.70;;;2.40;99.90;;;;;;6215598;23;20063;-78
2023/03/15 00:12:54;;;;;;;0.68;0.68;;;2.30;99.90;;;;;;6216117;23;20015;-78
2023/03/15 00:15:20;;;;;;;0.70;0.70;;;2.40;99.90;;;;;;6217674;23;20021;-77
2023/03/15 00:17:45;;;;;;;0.70;0.70;;;2.40;99.90;;;;;;6217693;23;20004;-78
2023/03/15 00:20:13;;;;;;;0.70;0.70;;;2.40;99.90;;;;;;6216727;23;20008;-78
2023/03/15 00:22:39;;;;;;;0.60;0.60;;;2.50;99.90;;;;;;6217635;23;20020;-78
2023/03/15 00:25:05;;;;;;;0.60;0.60;;;2.50;99.90;;;;;;6217315;23;20442;-78
2023/03/15 00:27:31;;;;;;;0.60;0.60;;;2.40;99.90;;;;;;6217773;23;20015;-78
2023/03/15 00:29:56;;;;;;;0.57;0.57;;;2.40;99.90;;;;;;6217531;23;20005;-78
2023/03/15 00:32:22;;;;;;;0.60;0.60;;;2.40;99.90;;;;;;6217066;23;20009;-78
2023/03/15 00:34:48;;;;;;;0.70;0.70;;;2.40;99.90;;;;;;6217139;23;20012;-78
2023/03/15 00:37:18;;;;;;;0.60;0.60;;;2.50;99.90;;;;;;6217453;23;20040;-78
2023/03/15 00:39:45;;;;;;;0.80;0.80;;;2.40;99.90;;;;;;6217559;23;20008;-78
2023/03/15 00:42:14;;;;;;;0.68;0.68;;;2.30;99.90;;;;;;6217510;23;20009;-78
2023/03/15 00:44:44;;;;;;;0.65;0.65;;;2.30;99.90;;;;;;6215472;23;20099;-78
2023/03/15 00:47:11;;;;;;;0.57;0.57;;;2.30;99.90;;;;;;6215541;23;20020;-78
2023/03/15 00:49:37;;;;;;;0.70;0.70;;;2.50;99.90;;;;;;6217448;23;20013;-78
2023/03/15 00:52:03;;;;;;;0.70;0.70;;;2.60;99.90;;;;;;6217333;23;20020;-78
2023/03/15 00:54:32;;;;;;;0.80;0.80;;;2.60;99.90;;;;;;6216806;23;20422;-78
2023/03/15 00:57:01;;;;;;;0.70;0.70;;;2.60;99.90;;;;;;6215673;23;20501;-78
2023/03/15 00:59:33;;;;;;;0.73;0.60;;;2.60;99.90;;;;;;6217380;23;20013;-79
2023/03/15 01:02:01;;;;;;;0.60;0.60;;;2.70;99.90;;;;;;6217521;23;20016;-78
2023/03/15 01:04:26;;;;;;;0.57;0.57;;;2.70;99.90;;;;;;6217340;23;20048;-78
2023/03/15 01:06:52;;;;;;;0.73;0.60;;;2.60;99.90;;;;;;6217781;23;20020;-78
2023/03/15 01:09:17;;;;;;;0.70;0.70;;;2.50;99.90;;;;;;6217222;23;20015;-78
2023/03/15 01:11:43;;;;;;;0.65;0.65;;;2.50;99.90;;;;;;6216814;23;20338;-78
2023/03/15 01:14:09;;;;;;;0.60;0.60;;;2.60;99.90;;;;;;6215330;23;20023;-78
2023/03/15 01:16:35;;;;;;;0.70;0.70;;;2.60;99.90;;;;;;6190290;23;20027;-79
2023/03/15 01:19:00;;;;;;;0.60;0.60;;;2.50;99.90;;;;;;6217073;23;20016;-78
2023/03/15 01:21:26;;;;;;;0.60;0.60;;;2.40;99.90;;;;;;6217095;23;20005;-78
2023/03/15 01:23:52;;;;;;;0.70;0.70;;;2.30;99.90;;;;;;6217113;23;20325;-78
2023/03/15 01:26:18;;;;;;;0.65;0.65;;;2.20;99.90;;;;;;6216807;23;20008;-78
2023/03/15 01:28:45;;;;;;;0.80;0.60;;;2.20;99.90;;;;;;6215155;23;20346;-81
2023/03/15 01:31:26;;;;;;;0.63;0.63;;;2.20;99.90;;;;;;6216925;23;20004;-78
2023/03/15 01:33:52;;;;;;;0.60;0.60;;;2.10;99.90;;;;;;6217082;23;20020;-78
2023/03/15 01:36:18;;;;;;;0.80;0.80;;;2.10;99.90;;;;;;6217012;23;20012;-79
2023/03/15 01:38:44;;;;;;;0.60;0.60;;;2.00;99.90;;;;;;6217047;23;20358;-78
2023/03/15 01:41:13;;;;;;;0.52;0.52;;;2.00;99.90;;;;;;6216619;23;20346;-79
2023/03/15 01:43:45;;;;;;;0.60;0.60;;;1.80;99.90;;;;;;6240456;23;20015;-78
2023/03/15 01:46:24;;;;;;;0.80;0.80;;;1.80;99.90;;;;;;6217312;23;20020;-79
2023/03/15 01:48:59;;;;;;;0.50;0.50;;;1.90;99.90;;;;;;6215018;23;20445;-78
2023/03/15 01:51:40;;;;;;;0.60;0.60;;;1.90;99.90;;;;;;6216912;23;20084;-78
2023/03/15 01:54:15;;;;;;;0.60;0.60;;;1.80;99.90;;;;;;6215298;23;20032;-78
2023/03/15 01:56:45;;;;;;;0.80;0.80;;;1.70;99.90;;;;;;6214903;23;20345;-78
2023/03/15 01:59:14;;;;;;;;;;;1.80;99.90;;;;;;6217236;23;20016;-78
2023/03/15 02:01:44;;;;;;;0.65;0.65;;;2.00;99.90;;;;;;6189821;23;19912;-78
2023/03/15 02:04:14;;;;;;;0.60;0.60;;;2.10;99.90;;;;;;6214805;23;20326;-78
2023/03/15 02:06:45;;;;;;;0.75;0.75;;;2.20;99.90;;;;;;6215691;23;20299;-78
2023/03/15 02:09:15;;;;;;;0.60;0.60;;;2.20;99.90;;;;;;6216728;23;20013;-78
2023/03/15 02:11:41;;;;;;;0.97;0.90;;;2.10;99.90;;;;;;6216664;23;20017;-78
2023/03/15 02:14:11;;;;;;;0.70;0.70;;;2.00;99.90;;;;;;6216584;23;20227;-78
2023/03/15 02:16:37;;;;;;;0.80;0.80;;;2.00;99.90;;;;;;6216721;23;20078;-78
2023/03/15 02:19:05;;;;;;;1.02;0.80;;;1.90;99.90;;;;;;6216536;23;20008;-78
2023/03/15 02:21:43;;;;;;;0.70;0.70;;;1.90;99.90;;;;;;6216426;23;20012;-78
2023/03/15 02:24:43;;;;;;;0.70;0.68;;;1.80;99.90;;;;;;6217300;23;20017;-78
2023/03/15 02:27:09;;;;;;;1.05;0.77;;;1.70;99.90;;;;;;6216958;23;20009;-78
2023/03/15 02:29:34;;;;;;;0.60;0.60;;;1.70;99.90;;;;;;6217076;23;20041;-78
2023/03/15 02:32:03;;;;;;;0.82;0.82;;;1.60;99.90;;;;;;6216337;23;20012;-78
2023/03/15 02:34:30;;;;;;;0.70;0.70;;;1.60;99.90;;;;;;6216447;23;20009;-78
2023/03/15 02:36:56;;;;;;;0.57;0.57;;;1.40;99.90;;;;;;6215974;23;20008;-78
2023/03/15 02:39:23;;;;;;;0.65;0.65;;;1.40;99.90;;;;;;6215926;23;20012;-78
2023/03/15 02:41:52;;;;;;;0.65;0.65;;;1.30;99.90;;;;;;6216171;23;20039;-78
2023/03/15 02:44:21;;;;;;;0.65;0.65;;;1.10;99.90;;;;;;6216021;23;20016;-78
2023/03/15 02:46:49;;;;;;;0.70;0.70;;;1.20;99.90;;;;;;6216343;23;20077;-78
2023/03/15 02:49:20;;;;;;;0.70;0.70;;;1.00;99.90;;;;;;6216603;23;20008;-78
2023/03/15 02:51:46;;;;;;;0.60;0.60;;;1.00;99.90;;;;;;6216333;23;20024;-78
2023/03/15 02:54:11;;;;;;;0.75;0.75;;;1.10;99.90;;;;;;6215886;23;20338;-78
2023/03/15 02:56:37;;;;;;;0.70;0.70;;;1.00;99.90;;;;;;6214612;23;20012;-78
2023/03/15 02:59:03;;;;;;;0.68;0.68;;;1.10;99.90;;;;;;6216293;23;20012;-78
2023/03/15 03:01:28;;;;;;;0.60;0.60;;;1.10;99.90;;;;;;6215977;23;20148;-78
2023/03/15 03:03:54;;;;;;;0.50;0.50;;;1.00;99.90;;;;;;6216267;23;20131;-78
2023/03/15 03:06:20;;;;;;;0.60;0.60;;;1.00;99.90;;;;;;6215923;23;20019;-78
2023/03/15 03:08:46;;;;;;;0.70;0.70;;;1.00;99.90;;;;;;6215827;23;20036;-78
2023/03/15 03:11:13;;;;;;;0.60;0.60;;;1.10;99.90;;;;;;6215890;23;20055;-78
2023/03/15 03:13:40;;;;;;;0.77;0.70;;;1.00;99.90;;;;;;6216350;23;20016;-79
2023/03/15 03:16:06;;;;;;;0.55;0.55;;;1.00;99.90;;;;;;6215915;23;20042;-79
2023/03/15 03:18:35;;;;;;;0.70;0.70;;;1.00;99.90;;;;;;6216178;23;20009;-78
2023/03/15 03:21:02;;;;;;;0.63;0.63;;;0.90;99.90;;;;;;6215769;23;20019;-78
2023/03/15 03:23:29;;;;;;;0.60;0.60;;;0.90;99.90;;;;;;6216166;23;20024;-78
2023/03/15 03:25:56;;;;;;;0.70;0.70;;;0.80;99.90;;;;;;6216228;23;20013;-78
2023/03/15 03:28:27;;;;;;;0.70;0.70;;;0.90;99.90;;;;;;6215956;23;20009;-78
2023/03/15 03:30:54;;;;;;;0.75;0.73;;;0.80;99.90;;;;;;6216118;23;20013;-78
2023/03/15 03:33:21;;;;;;;0.80;0.80;;;0.70;99.90;;;;;;6216000;23;20021;-78
2023/03/15 03:35:47;;;;;;;0.80;0.80;;;0.70;99.90;;;;;;6216267;23;20114;-78
2023/03/15 03:38:14;;;;;;;0.68;0.68;;;0.80;99.90;;;;;;6216114;23;20070;-78
2023/03/15 03:40:40;;;;;;;0.88;0.88;;;0.80;99.90;;;;;;6216166;23;20012;-79
2023/03/15 03:43:09;;;;;;;0.60;0.60;;;0.60;99.90;;;;;;6216348;23;20020;-79
2023/03/15 03:45:35;;;;;;;0.70;0.70;;;0.70;99.90;;;;;;6216370;23;20083;-78
2023/03/15 03:48:00;;;;;;;0.70;0.70;;;0.70;99.90;;;;;;6216690;23;20433;-78
2023/03/15 03:50:26;;;;;;;0.60;0.60;;;0.80;99.90;;;;;;6216197;23;20017;-78
2023/03/15 03:52:52;;;;;;;0.60;0.60;;;0.70;99.90;;;;;;6217985;23;20013;-78
2023/03/15 03:55:18;;;;;;;0.63;0.63;;;0.80;99.90;;;;;;6216041;23;20017;-78
2023/03/15 03:57:46;;;;;;;0.60;0.60;;;0.70;99.90;;;;;;6216351;23;20020;-78
2023/03/15 04:00:13;;;;;;;0.60;0.60;;;0.70;99.90;;;;;;6217664;23;20008;-78
2023/03/15 04:02:42;;;;;;;0.77;0.70;;;0.70;99.90;;;;;;6218156;23;20009;-78
2023/03/15 04:05:10;;;;;;;0.50;0.50;;;0.50;99.90;;;;;;6218031;23;20023;-78
2023/03/15 04:07:36;;;;;;;0.70;0.70;;;0.50;99.90;;;;;;6216046;23;20438;-79
2023/03/15 04:10:02;;;;;;;0.70;0.70;;;0.60;99.90;;;;;;6217807;23;20019;-77
2023/03/15 04:12:27;;;;;;;0.65;0.65;;;0.60;99.90;;;;;;6241360;23;20525;-78
2023/03/15 04:14:53;;;;;;;0.52;0.52;;;0.50;99.90;;;;;;6215889;23;20037;-78
2023/03/15 04:17:19;;;;;;;0.70;0.70;;;0.50;99.90;;;;;;6217953;23;20088;-78
2023/03/15 04:19:45;;;;;;;1.50;0.80;;;0.40;99.90;;;;;;6217532;23;20337;-78
2023/03/15 04:22:14;;;;;;;0.63;0.60;;;0.30;99.90;;;;;;6217806;23;20008;-78
2023/03/15 04:24:40;;;;;;;0.60;0.60;;;0.40;99.90;;;;;;6217860;23;20016;-78
2023/03/15 04:27:07;;;;;;;0.50;0.50;;;0.40;99.90;;;;;;6241917;23;20017;-78
2023/03/15 04:29:32;;;;;;;0.70;0.70;;;0.40;99.90;;;;;;6217619;23;20019;-78
2023/03/15 04:32:00;;;;;;;0.80;0.70;;;0.30;99.90;;;;;;6215726;23;20092;-78
2023/03/15 04:34:28;;;;;;;0.70;0.70;;;0.30;99.90;;;;;;6217709;23;20008;-78
2023/03/15 04:36:53;;;;;;;0.63;0.63;;;0.30;99.90;;;;;;6217652;23;20008;-77
2023/03/15 04:39:20;;;;;;;0.80;0.80;;;0.20;99.90;;;;;;6217677;23;20067;-77
2023/03/15 04:41:45;;;;;;;0.68;0.68;;;0.30;99.90;;;;;;6217315;23;20090;-78
2023/03/15 04:44:15;;;;;;;0.60;0.60;;;0.30;99.90;;;;;;6217538;23;20437;-78
2023/03/15 04:46:41;;;;;;;0.70;0.70;;;0.40;99.90;;;;;;6218540;23;20410;-78
2023/03/15 04:49:07;;;;;;;0.68;0.68;;;0.40;99.90;;;;;;6217401;23;20009;-78
2023/03/15 04:51:33;;;;;;;0.73;0.60;;;0.40;99.90;;;;;;6217002;23;20066;-78
2023/03/15 04:53:59;;;;;;;0.50;0.50;;;0.30;99.90;;;;;;6217157;23;20414;-78
2023/03/15 04:56:25;;;;;;;0.70;0.70;;;0.20;99.90;;;;;;6215595;23;20048;-78
2023/03/15 04:58:57;;;;;;;0.90;0.75;;;0.30;99.90;;;;;;6217165;23;20020;-78
2023/03/15 05:01:27;;;;;;;0.70;0.70;;;0.20;99.90;;;;;;6215800;23;20087;-78
2023/03/15 05:03:53;;;;;;;0.77;0.77;;;0.20;99.90;;;;;;6217907;23;20437;-79
2023/03/15 05:06:19;;;;;;;0.52;0.52;;;0.20;99.90;;;;;;6217983;23;20032;-78
2023/03/15 05:08:45;;;;;;;0.60;0.60;;;0.20;99.90;;;;;;6217238;23;20004;-77
2023/03/15 05:11:11;;;;;;;0.70;0.70;;;0.30;99.90;;;;;;6217242;23;20005;-77
2023/03/15 05:13:37;;;;;;;0.70;0.70;;;0.30;99.90;;;;;;6215348;23;20070;-77
2023/03/15 05:16:03;;;;;;;0.65;0.65;;;0.20;99.90;;;;;;6217293;23;20108;-77
2023/03/15 05:18:28;;;;;;;0.55;0.55;;;0.40;99.90;;;;;;6217282;23;20019;-77
2023/03/15 05:20:54;;;;;;;0.80;0.80;;;0.40;99.90;;;;;;6215251;23;20013;-77
2023/03/15 05:23:22;;;;;;;0.60;0.60;;;0.40;99.90;;;;;;6217216;23;20138;-77
2023/03/15 05:25:54;;;;;;;0.60;0.60;;;0.30;99.90;;;;;;6217165;23;20372;-78
2023/03/15 05:28:22;;;;;;;0.60;0.60;;;0.20;99.90;;;;;;6217367;23;20069;-77
2023/03/15 05:30:48;;;;;;;0.57;0.57;;;0.20;99.90;;;;;;6217223;23;20044;-77
2023/03/15 05:33:14;;;;;;;0.50;0.50;;;0.10;99.90;;;;;;6216677;23;20020;-78
2023/03/15 05:35:43;;;;;;;0.80;0.80;;;-0.20;99.90;;;;;;6215223;23;20027;-76
2023/03/15 05:38:13;;;;;;;0.70;0.70;;;-0.20;99.90;;;;;;6215157;23;20457;-77
2023/03/15 05:40:40;;;;;;;0.70;0.70;;;-0.10;99.90;;;;;;6215145;23;20021;-78
2023/03/15 05:43:06;;;;;;;0.70;0.70;;;-0.10;99.90;;;;;;6215304;23;20016;-74
2023/03/15 05:45:31;;;;;;;0.60;0.60;;;-0.10;99.90;;;;;;6216932;23;20016;-79
2023/03/15 05:48:03;;;;;;;0.70;0.70;;;0.00;99.90;;;;;;6216560;23;20097;-77
2023/03/15 05:50:31;;;;;;;0.70;0.70;;;-0.10;99.90;;;;;;6215139;23;20056;-76
2023/03/15 05:52:58;;;;;;;0.70;0.70;;;0.00;99.90;;;;;;6216997;23;20369;-70
2023/03/15 05:55:24;;;;;;;0.77;0.77;;;-0.10;99.90;;;;;;6216365;23;20334;-72
2023/03/15 05:57:50;;;;;;;0.60;0.60;;;-0.10;99.90;;;;;;6217577;23;20375;-73
2023/03/15 06:00:16;;;;;;;0.73;0.73;;;0.00;99.90;;;;;;6216403;23;20015;-72
2023/03/15 06:02:43;;;;;;;0.63;0.63;;;0.20;99.90;;;;;;6217416;23;20023;-73
2023/03/15 06:05:09;;;;;;;0.80;0.80;;;0.20;99.90;;;;;;6240891;23;20052;-73
2023/03/15 06:07:35;;;;;;;0.70;0.70;;;0.10;99.90;;;;;;6216431;23;20012;-72
2023/03/15 06:10:00;;;;;;;0.70;0.70;;;0.30;99.90;;;;;;6214863;23;20090;-72
2023/03/15 06:12:26;;;;;;;0.70;0.70;;;0.30;99.90;;;;;;6216397;23;20016;-72
2023/03/15 06:14:52;;;;;;;0.80;0.80;;;0.40;99.90;;;;;;6216728;23;20005;-72
2023/03/15 06:17:18;;;;;;;0.85;0.77;;;0.40;99.90;;;;;;6216660;23;20013;-72
2023/03/15 06:19:43;;;;;;;0.60;0.60;;;0.40;99.90;;;;;;6216723;23;20011;-73
2023/03/15 06:22:09;;;;;;;0.70;0.70;;;0.30;99.90;;;;;;6215736;23;20026;-73
2023/03/15 06:24:35;;;;;;;0.70;0.70;;;0.50;99.90;;;;;;6216634;23;20056;-75
2023/03/15 06:27:00;;;;;;;0.70;0.70;;;0.40;99.90;;;;;;6241510;23;20405;-75
2023/03/15 06:29:26;;;;;;;0.60;0.60;;;0.50;99.90;;;;;;6216606;23;20028;-74
2023/03/15 06:31:52;;;;;;;0.75;0.75;;;0.50;99.90;;;;;;6216464;23;20055;-74
2023/03/15 06:34:19;;;;;;;0.60;0.60;;;0.40;99.90;;;;;;6214652;23;20044;-73
2023/03/15 06:36:46;;;;;;;0.95;0.70;;;0.50;99.90;;;;;;6216484;23;20334;-72
2023/03/15 06:39:11;;;;;;;0.70;0.70;;;0.50;99.90;;;;;;6216481;23;20009;-72
2023/03/15 06:41:38;;;;;;;0.60;0.60;;;0.40;99.90;;;;;;6214497;23;20407;-72
2023/03/15 06:44:04;;;;;;;0.60;0.60;;;0.50;99.90;;;;;;6214740;23;20342;-72
2023/03/15 06:46:30;;;;;;;0.60;0.60;;;0.40;99.90;;;;;;6214458;23;20015;-72
2023/03/15 06:48:56;;;;;;;0.60;0.60;;;0.50;99.90;;;;;;6216327;23;20005;-72
2023/03/15 06:51:22;;;;;;;0.70;0.70;;;0.50;99.90;;;;;;6216222;23;20084;-72
2023/03/15 06:53:47;;;;;;;0.60;0.60;;;0.50;99.90;;;;;;6216766;23;20009;-71
2023/03/15 06:56:13;;;;;;;0.70;0.70;;;0.60;99.90;;;;;;6216439;23;20008;-71
2023/03/15 06:58:39;;;;;;;0.80;0.80;;;0.90;99.90;;;;;;6216454;23;20066;-71
2023/03/15 07:01:05;;;;;;;0.73;0.73;;;0.80;99.90;;;;;;6216290;23;20100;-71
2023/03/15 07:03:30;;;;;;;0.80;0.80;;;1.00;99.90;;;;;;6215980;23;20411;-72
2023/03/15 07:05:56;;;;;;;0.60;0.60;;;1.00;99.90;;;;;;6215375;23;20017;-72
2023/03/15 07:08:23;;;;;;;0.70;0.70;;;1.00;99.90;;;;;;6239760;23;20013;-72
2023/03/15 07:10:50;;;;;;;0.75;0.75;;;1.10;99.90;;;;;;6215957;23;20059;-71
2023/03/15 07:13:16;;;;;;;0.80;0.80;;;1.40;99.90;;;;;;6215939;23;20048;-71
2023/03/15 07:15:42;;;;;;;0.70;0.70;;;1.30;99.90;;;;;;6216783;23;20016;-71
2023/03/15 07:18:07;;;;;;;0.70;0.70;;;1.60;99.90;;;;;;6216286;23;20017;-71
2023/03/15 07:20:33;;;;;;;0.70;0.70;;;1.70;99.90;;;;;;6216242;23;20009;-71
2023/03/15 07:22:59;;;;;;;0.60;0.60;;;1.60;99.90;;;;;;6216837;23;20372;-71
2023/03/15 07:25:25;;;;;;;0.70;0.70;;;1.60;99.90;;;;;;6217851;23;20449;-71
2023/03/15 07:27:51;;;;;;;0.77;0.77;;;1.90;99.90;;;;;;6218374;23;20019;-71
2023/03/15 07:30:18;;;;;;;0.60;0.60;;;1.80;99.90;;;;;;6218796;23;20079;-71
2023/03/15 07:32:44;;;;;;;0.68;0.60;;;1.90;99.90;;;;;;6217868;23;20056;-70
2023/03/15 07:35:10;;;;;;;0.52;0.52;;;2.00;99.90;;;;;;6218143;23;20024;-69
2023/03/15 07:37:36;;;;;;;0.73;0.73;;;2.10;99.90;;;;;;6219069;23;20009;-70
2023/03/15 07:40:02;;;;;;;0.70;0.70;;;2.20;99.90;;;;;;6218101;23;20080;-68
2023/03/15 07:42:27;;;;;;;0.70;0.70;;;2.30;99.90;;;;;;6217784;23;20432;-69
2023/03/15 07:44:53;;;;;;;0.70;0.70;;;2.40;99.90;;;;;;6218134;23;20015;-69
2023/03/15 07:47:19;;;;;;;0.73;0.73;;;2.60;99.90;;;;;;6218067;23;20020;-69
2023/03/15 07:49:44;;;;;;;0.75;0.75;;;2.50;99.90;;;;;;6217722;23;20012;-69
2023/03/15 07:52:10;;;;;;;0.60;0.60;;;2.80;99.90;;;;;;6217925;23;20009;-69
2023/03/15 07:54:36;;;;;;;0.70;0.70;;;2.70;99.90;;;;;;6215965;23;20308;-69
2023/03/15 07:57:02;;;;;;;0.73;0.70;;;2.90;99.90;;;;;;6217951;23;20084;-69
2023/03/15 07:59:27;;;;;;;0.70;0.70;;;3.00;99.90;;;;;;6216157;23;20009;-69
2023/03/15 08:01:53;;;;;;;0.70;0.70;;;3.00;99.90;;;;;;6217611;23;20024;-69
2023/03/15 08:04:19;;;;;;;0.60;0.60;;;3.10;99.90;;;;;;6217429;23;20016;-69
2023/03/15 08:06:45;;;;;;;0.70;0.70;;;3.20;99.90;;;;;;6217434;23;20024;-69
2023/03/15 08:09:11;;;;;;;0.60;0.60;;;3.30;99.90;;;;;;6215850;23;20031;-69
2023/03/15 08:11:36;;;;;;;0.65;0.65;;;3.30;99.90;;;;;;6217719;23;20016;-69
2023/03/15 08:14:02;;;;;;;0.70;0.70;;;3.60;99.90;;;;;;6217978;23;20020;-69
2023/03/15 08:16:28;;;;;;;0.65;0.65;;;3.70;99.90;;;;;;6217772;23;20435;-69
2023/03/15 08:18:53;;;;;;;0.70;0.70;;;3.80;99.90;;;;;;6217846;23;20382;-69
2023/03/15 08:21:20;;;;;;;0.60;0.60;;;3.80;99.90;;;;;;6217748;23;20023;-69
2023/03/15 08:23:45;;;;;;;0.60;0.60;;;4.00;99.90;;;;;;6217730;23;20373;-69
2023/03/15 08:26:11;;;;;;;0.70;0.70;;;4.20;99.90;;;;;;6217666;23;20039;-69
2023/03/15 08:28:37;;;;;;;1.20;0.70;;;4.20;99.90;;;;;;6217491;23;20017;-69
2023/03/15 08:31:06;;;;;;;0.68;0.68;;;4.30;99.90;;;;;;6217730;23;20016;-69
2023/03/15 08:33:32;;;;;;;0.50;0.50;;;4.40;99.90;;;;;;6217176;23;20099;-69
2023/03/15 08:35:58;;;;;;;0.57;0.57;;;4.50;99.90;;;;;;6215307;23;20103;-69
2023/03/15 08:38:25;;;;;;;0.70;0.70;;;4.60;99.90;;;;;;6217649;23;20008;-69
2023/03/15 08:40:55;;;;;;;0.50;0.50;;;4.70;99.90;;;;;;6215734;23;20013;-69
2023/03/15 08:43:21;;;;;;;0.55;0.55;;;4.70;99.90;;;;;;6217635;23;20017;-69
2023/03/15 08:45:48;;;;;;;0.57;0.57;;;4.80;99.90;;;;;;6217488;23;20043;-68
2023/03/15 08:48:14;;;;;;;0.63;0.63;;;4.80;99.90;;;;;;6215538;23;20443;-68
2023/03/15 08:50:39;;;;;;;0.60;0.60;;;5.00;99.90;;;;;;6217144;23;20059;-68
2023/03/15 08:53:05;;;;;;;0.65;0.65;;;5.00;99.90;;;;;;6217000;23;20013;-69
2023/03/15 08:55:31;;;;;;;0.77;0.77;;;5.00;99.90;;;;;;6216780;23;20094;-68
2023/03/15 08:57:56;;;;;;;0.60;0.60;;;5.10;99.90;;;;;;6241298;23;20012;-69
2023/03/15 09:00:22;;;;;;;0.50;0.50;;;5.00;99.90;;;;;;6217245;23;20013;-69
2023/03/15 09:02:50;;;;;;;0.68;0.60;;;5.10;99.90;;;;;;6217278;23;20381;-69
2023/03/15 09:05:17;;;;;;;0.70;0.70;;;5.10;99.90;;;;;;6217276;23;20008;-69
2023/03/15 09:07:43;;;;;;;0.50;0.50;;;5.20;99.90;;;;;;6217342;23;20315;-69
2023/03/15 09:10:13;;;;;;;0.70;0.70;;;5.30;99.90;;;;;;6217326;23;20012;-69
2023/03/15 09:12:43;;;;;;;0.60;0.60;;;5.30;99.90;;;;;;6215435;23;20042;-69
2023/03/15 09:15:10;;;;;;;0.60;0.60;;;5.50;99.90;;;;;;6217305;23;20015;-69
2023/03/15 09:17:37;;;;;;;0.50;0.50;;;5.50;99.90;;;;;;6217261;23;20314;-69
2023/03/15 09:20:10;;;;;;;0.60;0.60;;;5.50;99.90;;;;;;6216909;23;20397;-68
2023/03/15 09:22:36;;;;;;;0.60;0.60;;;5.60;99.90;;;;;;6217274;23;20021;-69
2023/03/15 09:25:01;;;;;;;0.60;0.60;;;5.70;99.90;;;;;;6216919;23;20066;-69
2023/03/15 09:27:32;;;;;;;0.60;0.60;;;5.70;99.90;;;;;;6216851;23;20040;-69
2023/03/15 09:29:58;;;;;;;0.63;0.63;;;5.70;99.90;;;;;;6217176;23;20012;-69
2023/03/15 09:32:23;;;;;;;0.60;0.60;;;5.70;99.90;;;;;;6216919;23;20022;-69
2023/03/15 09:34:50;;;;;;;0.70;0.70;;;5.80;99.90;;;;;;6217073;23;20052;-69
2023/03/15 09:37:15;;;;;;;0.50;0.50;;;5.80;99.90;;;;;;6217062;23;20044;-69
2023/03/15 09:39:41;;;;;;;0.70;0.70;;;5.70;99.90;;;;;;6216979;23;20438;-69
2023/03/15 09:42:33;;;;;;;0.60;0.60;;;5.80;99.90;;;;;;6216947;23;20016;-69
2023/03/15 09:45:40;;;;;;;0.60;0.60;;;5.90;99.90;;;;;;6214997;23;20048;-68
2023/03/15 09:48:14;;;;;;;0.47;0.47;;;5.90;99.90;;;;;;6217416;23;20025;-68
2023/03/15 09:50:50;;;;;;;0.60;0.60;;;6.10;99.90;;;;;;6216646;23;20100;-69
2023/03/15 09:53:27;;;;;;;0.50;0.50;;;6.10;99.90;;;;;;6216900;23;20326;-69
2023/03/15 09:55:53;;;;;;;0.60;0.60;;;6.30;99.90;;;;;;6216875;23;20032;-69
2023/03/15 09:58:31;;;;;;;0.75;0.75;;;6.10;99.90;;;;;;6215041;23;20087;-69
2023/03/15 10:01:16;;;;;;;0.60;0.60;;;6.20;99.90;;;;;;6215022;23;20008;-69
2023/03/15 10:03:51;;;;;;;0.60;0.60;;;6.10;99.90;;;;;;6215037;23;20017;-69
2023/03/15 10:06:25;;;;;;;0.52;0.52;;;6.20;99.90;;;;;;6216765;23;20012;-69
2023/03/15 10:08:55;;;;;;;0.45;0.45;;;6.20;99.90;;;;;;6216671;23;20080;-69
2023/03/15 10:11:41;;;;;;;0.60;0.60;;;6.30;99.90;;;;;;6216721;23;20088;-69
2023/03/15 10:14:18;;;;;;;0.60;0.60;;;6.40;99.90;;;;;;6216819;23;20013;-69
2023/03/15 10:16:49;;;;;;;0.40;0.40;;;6.20;99.90;;;;;;6216665;23;20071;-69
2023/03/15 10:19:24;;;;;;;0.50;0.50;;;6.50;99.90;;;;;;6216157;23;20013;-68
2023/03/15 10:21:56;;;;;;;0.45;0.45;;;6.50;99.90;;;;;;6216643;23;20031;-69
2023/03/15 10:24:28;;;;;;;0.60;0.60;;;6.60;99.90;;;;;;6216133;23;20017;-69
2023/03/15 10:26:56;;;;;;;0.80;0.80;;;6.60;99.90;;;;;;6214695;23;20012;-69
2023/03/15 10:29:25;;;;;;;0.55;0.55;;;6.70;99.90;;;;;;6214780;23;20012;-69
2023/03/15 10:31:53;;;;;;;0.53;0.53;;;6.50;99.90;;;;;;6214574;23;20083;-69
2023/03/15 10:34:20;;;;;;;0.50;0.50;;;6.40;98.20;;;;;;6214635;23;20016;-69
2023/03/15 10:36:54;;;;;;;0.45;0.45;;;6.70;98.50;;;;;;6214651;23;20088;-69
2023/03/15 10:39:20;;;;;;;0.60;0.60;;;6.50;99.90;;;;;;6216500;23;20031;-69
2023/03/15 10:41:48;;;;;;;0.45;0.40;;;6.70;99.90;;;;;;6216524;23;20009;-68
2023/03/15 10:44:17;;;;;;;0.40;0.40;;;6.90;99.90;;;;;;6214658;23;20016;-68
2023/03/15 10:47:00;;;;;;;0.43;0.43;;;7.00;98.70;;;;;;6216649;23;20005;-68
2023/03/15 10:49:36;;;;;;;0.40;0.40;;;7.20;97.90;;;;;;6214960;23;20019;-68
2023/03/15 10:52:02;;;;;;;0.50;0.50;;;7.20;98.20;;;;;;6189461;23;20004;-67
2023/03/15 10:54:31;;;;;;;0.50;0.50;;;6.80;95.40;;;;;;6215943;23;20095;-68
2023/03/15 10:57:02;;;;;;;0.43;0.43;;;7.00;99.90;;;;;;6240304;23;20017;-68
2023/03/15 10:59:31;;;;;;;0.50;0.50;;;7.10;98.20;;;;;;6214404;23;20463;-68
2023/03/15 11:02:11;;;;;;;0.47;0.47;;;7.30;97.90;;;;;;6189312;23;20012;-68
2023/03/15 11:04:42;;;;;;;0.43;0.43;;;7.30;96.80;;;;;;6240067;23;20051;-68
2023/03/15 11:07:08;;;;;;;0.40;0.40;;;7.40;95.10;;;;;;6214337;23;20012;-68
2023/03/15 11:09:50;;;;;;;0.55;0.50;;;7.50;98.20;;;;;;6214314;23;20051;-69
2023/03/15 11:12:32;;;;;;;0.50;0.50;;;7.60;98.30;;;;;;6216184;23;20016;-69
2023/03/15 11:15:13;;;;;;;0.50;0.50;;;7.50;97.10;;;;;;6216414;23;20011;-70
2023/03/15 11:17:47;;;;;;;0.50;0.50;;;7.20;96.60;;;;;;6214428;23;20012;-70
2023/03/15 11:20:37;;;;;;;0.60;0.60;;;7.50;97.00;;;;;;6189219;23;20009;-69
2023/03/15 11:23:24;;;;;;;0.50;0.50;;;7.20;96.50;;;;;;6215892;23;20019;-69
2023/03/15 11:25:50;;;;;;;0.50;0.50;;;7.30;97.40;;;;;;6240020;23;20016;-69
2023/03/15 11:28:19;;;;;;;0.50;0.50;;;7.50;98.90;;;;;;6214435;23;20044;-69
2023/03/15 11:30:46;;;;;;;0.70;0.60;;;7.80;99.20;;;;;;6215782;23;20012;-71
2023/03/15 11:33:25;;;;;;;0.82;0.52;;;7.90;97.50;;;;;;6214616;23;20013;-70
2023/03/15 11:35:52;;;;;;;0.40;0.40;;;7.90;96.20;;;;;;6216227;23;20008;-70
2023/03/15 11:38:32;;;;;;;0.50;0.50;;;8.00;93.60;;;;;;6216101;23;20087;-69
2023/03/15 11:40:59;;;;;;;0.57;0.57;;;8.30;94.40;;;;;;6214235;23;20031;-69
2023/03/15 11:43:38;;;;;;;0.60;0.60;;;8.30;93.80;;;;;;6239754;23;20289;-69
2023/03/15 11:46:11;;;;;;;0.45;0.45;;;8.30;91.80;;;;;;6214165;23;20020;-69
2023/03/15 11:49:03;;;;;;;0.35;0.35;;;8.60;94.70;;;;;;6215781;23;20010;-70
2023/03/15 11:51:34;;;;;;;0.50;0.50;;;8.50;94.20;;;;;;6216171;23;20009;-70
2023/03/15 11:54:14;;;;;;;0.40;0.40;;;8.20;94.70;;;;;;6213975;23;20017;-70
2023/03/15 11:56:43;;;;;;;0.40;0.40;;;8.40;96.80;;;;;;6214199;23;20017;-69
2023/03/15 11:59:12;;;;;;;0.40;0.40;;;8.10;94.20;;;;;;6214279;23;20012;-69
2023/03/15 12:01:49;;;;;;;0.40;0.40;;;7.70;92.80;;;;;;6216537;23;20008;-69
2023/03/15 12:04:24;;;;;;;0.50;0.50;;;8.00;92.40;;;;;;6214056;23;20008;-70
2023/03/15 12:06:52;;;;;;;0.50;0.50;;;8.10;91.60;;;;;;6215947;23;20064;-69
2023/03/15 12:09:35;;;;;;;0.50;0.50;;;8.40;94.30;;;;;;6215332;23;20044;-70
2023/03/15 12:12:22;;;;;;;0.40;0.40;;;8.60;93.00;;;;;;6215789;23;20016;-70
2023/03/15 12:15:06;;;;;;;0.50;0.50;;;8.70;92.80;;;;;;6216085;23;20017;-70
2023/03/15 12:17:41;;;;;;;0.40;0.40;;;8.50;92.00;;;;;;6217865;23;20032;-69
2023/03/15 12:20:10;;;;;;;0.40;0.40;;;8.50;93.50;;;;;;6217807;23;20040;-70
2023/03/15 12:22:40;;;;;;;0.40;0.40;;;8.50;92.10;;;;;;6241663;23;20013;-69
2023/03/15 12:25:15;;;;;;;0.45;0.45;;;8.70;92.30;;;;;;6217692;23;20047;-69
2023/03/15 12:27:54;;;;;;;0.50;0.50;;;8.50;90.80;;;;;;6215731;23;20027;-69
2023/03/15 12:30:37;;;;;;;0.30;0.30;;;8.70;90.00;;;;;;6217602;23;20008;-70
2023/03/15 12:33:04;;;;;;;0.43;0.43;;;8.90;90.40;;;;;;6217292;23;20017;-69
2023/03/15 12:35:38;;;;;;;0.50;0.50;;;9.30;91.30;;;;;;6217565;23;20008;-70
2023/03/15 12:38:20;;;;;;;0.30;0.30;;;9.50;90.00;;;;;;6217727;23;20008;-70
2023/03/15 12:40:56;;;;;;;0.40;0.40;;;9.60;85.60;;;;;;6217634;23;20008;-70
2023/03/15 12:43:44;;;;;;;0.43;0.43;;;9.40;85.30;;;;;;6217763;23;20023;-70
2023/03/15 12:46:37;;;;;;;0.40;0.40;;;9.50;84.60;;;;;;6217699;23;20331;-70
2023/03/15 12:49:26;;;;;;;0.55;0.55;;;9.80;83.30;;;;;;6217107;23;20576;-69
2023/03/15 12:52:24;;;;;;;0.40;0.40;;;10.10;88.20;;;;;;6218120;23;20305;-70
2023/03/15 12:54:52;;;;;;;0.40;0.40;;;10.20;85.90;;;;;;6217043;23;20035;-70
2023/03/15 12:57:23;;;;;;;0.40;0.40;;;10.70;80.90;;;;;;6217037;23;20106;-70
2023/03/15 12:59:57;;;;;;;0.45;0.45;;;11.30;77.30;;;;;;6215680;23;20492;-70
2023/03/15 13:02:42;;;;;;;0.40;0.40;;;11.90;79.70;;;;;;6241303;23;20059;-70
2023/03/15 13:05:08;;;;;;;0.40;0.40;;;12.30;83.10;;;;;;6215694;23;20017;-70
2023/03/15 13:07:52;;;;;;;0.50;0.50;;;12.70;78.50;;;;;;6217417;23;20020;-70